sensor_id;sensor_type;location;lat;lon;timestamp;P1;durP1;ratioP1;P2;durP2;ratioP2
35777;SDS011;21899;42.662;23.316;2023-04-16T00:01:31;5.53;;;2.75;;
35777;SDS011;21899;42.662;23.316;2023-04-16T00:03:57;4.80;;;2.42;;
35777;SDS011;21899;42.662;23.316;2023-04-16T00:06:22;6.97;;;2.90;;
35777;SDS011;21899;42.662;23.316;2023-04-16T00:08:48;6.10;;;2.97;;
35777;SDS011;21899;42.662;23.316;2023-04-16T00:11:14;6.97;;;2.25;;
35777;SDS011;21899;42.662;23.316;2023-04-16T00:13:39;6.95;;;2.97;;
35777;SDS011;21899;42.662;23.316;2023-04-16T00:16:05;6.28;;;2.85;;
35777;SDS011;21899;42.662;23.316;2023-04-16T00:18:31;6.75;;;3.00;;
35777;SDS011;21899;42.662;23.316;2023-04-16T00:20:56;5.60;;;2.60;;
35777;SDS011;21899;42.662;23.316;2023-04-16T00:23:21;5.15;;;2.30;;
35777;SDS011;21899;42.662;23.316;2023-04-16T00:25:49;5.15;;;2.25;;
35777;SDS011;21899;42.662;23.316;2023-04-16T00:28:14;6.13;;;2.65;;
35777;SDS011;21899;42.662;23.316;2023-04-16T00:30:40;5.82;;;2.40;;
35777;SDS011;21899;42.662;23.316;2023-04-16T00:33:05;5.35;;;2.60;;
35777;SDS011;21899;42.662;23.316;2023-04-16T00:35:31;8.70;;;2.70;;
35777;SDS011;21899;42.662;23.316;2023-04-16T00:37:56;5.78;;;3.33;;
35777;SDS011;21899;42.662;23.316;2023-04-16T00:40:22;6.47;;;2.83;;
35777;SDS011;21899;42.662;23.316;2023-04-16T00:42:47;7.43;;;2.97;;
35777;SDS011;21899;42.662;23.316;2023-04-16T00:45:13;7.53;;;2.90;;
35777;SDS011;21899;42.662;23.316;2023-04-16T00:47:38;6.05;;;2.60;;
35777;SDS011;21899;42.662;23.316;2023-04-16T00:50:04;5.78;;;2.97;;
35777;SDS011;21899;42.662;23.316;2023-04-16T00:52:33;8.50;;;3.08;;
35777;SDS011;21899;42.662;23.316;2023-04-16T00:54:58;7.22;;;3.60;;
35777;SDS011;21899;42.662;23.316;2023-04-16T00:57:24;8.68;;;3.20;;
35777;SDS011;21899;42.662;23.316;2023-04-16T00:59:51;10.95;;;3.67;;
35777;SDS011;21899;42.662;23.316;2023-04-16T01:02:16;8.70;;;3.90;;
35777;SDS011;21899;42.662;23.316;2023-04-16T01:04:42;9.50;;;4.30;;
35777;SDS011;21899;42.662;23.316;2023-04-16T01:07:07;12.73;;;4.35;;
35777;SDS011;21899;42.662;23.316;2023-04-16T01:09:33;9.13;;;4.55;;
35777;SDS011;21899;42.662;23.316;2023-04-16T01:11:58;11.77;;;4.80;;
35777;SDS011;21899;42.662;23.316;2023-04-16T01:14:24;7.55;;;3.92;;
35777;SDS011;21899;42.662;23.316;2023-04-16T01:16:49;10.85;;;4.30;;
35777;SDS011;21899;42.662;23.316;2023-04-16T01:19:15;9.55;;;4.43;;
35777;SDS011;21899;42.662;23.316;2023-04-16T01:21:40;10.68;;;4.57;;
35777;SDS011;21899;42.662;23.316;2023-04-16T01:24:06;15.40;;;4.55;;
35777;SDS011;21899;42.662;23.316;2023-04-16T01:26:31;12.20;;;4.22;;
35777;SDS011;21899;42.662;23.316;2023-04-16T01:28:57;8.07;;;3.97;;
35777;SDS011;21899;42.662;23.316;2023-04-16T01:31:23;8.25;;;3.85;;
35777;SDS011;21899;42.662;23.316;2023-04-16T01:33:49;9.45;;;4.70;;
35777;SDS011;21899;42.662;23.316;2023-04-16T01:36:14;8.68;;;4.10;;
35777;SDS011;21899;42.662;23.316;2023-04-16T01:38:40;10.20;;;4.53;;
35777;SDS011;21899;42.662;23.316;2023-04-16T01:41:05;7.30;;;3.70;;
35777;SDS011;21899;42.662;23.316;2023-04-16T01:43:30;12.25;;;4.47;;
35777;SDS011;21899;42.662;23.316;2023-04-16T01:46:10;9.13;;;3.83;;
35777;SDS011;21899;42.662;23.316;2023-04-16T01:48:38;7.72;;;3.45;;
35777;SDS011;21899;42.662;23.316;2023-04-16T01:51:03;6.55;;;3.45;;
35777;SDS011;21899;42.662;23.316;2023-04-16T01:53:29;10.52;;;3.75;;
35777;SDS011;21899;42.662;23.316;2023-04-16T01:55:55;8.27;;;3.83;;
35777;SDS011;21899;42.662;23.316;2023-04-16T01:58:20;7.13;;;3.72;;
35777;SDS011;21899;42.662;23.316;2023-04-16T02:00:45;6.82;;;3.58;;
35777;SDS011;21899;42.662;23.316;2023-04-16T02:03:11;10.68;;;4.15;;
35777;SDS011;21899;42.662;23.316;2023-04-16T02:05:36;7.70;;;3.67;;
35777;SDS011;21899;42.662;23.316;2023-04-16T02:08:02;13.95;;;4.05;;
35777;SDS011;21899;42.662;23.316;2023-04-16T02:10:27;8.95;;;4.00;;
35777;SDS011;21899;42.662;23.316;2023-04-16T02:12:52;10.35;;;4.75;;
35777;SDS011;21899;42.662;23.316;2023-04-16T02:15:18;14.20;;;4.50;;
35777;SDS011;21899;42.662;23.316;2023-04-16T02:17:43;9.23;;;5.05;;
35777;SDS011;21899;42.662;23.316;2023-04-16T02:20:10;10.25;;;5.35;;
35777;SDS011;21899;42.662;23.316;2023-04-16T02:22:36;9.98;;;5.32;;
35777;SDS011;21899;42.662;23.316;2023-04-16T02:25:01;9.63;;;5.20;;
35777;SDS011;21899;42.662;23.316;2023-04-16T02:27:27;12.57;;;4.35;;
35777;SDS011;21899;42.662;23.316;2023-04-16T02:29:52;11.75;;;5.18;;
35777;SDS011;21899;42.662;23.316;2023-04-16T02:32:18;17.38;;;5.22;;
35777;SDS011;21899;42.662;23.316;2023-04-16T02:34:43;13.20;;;5.53;;
35777;SDS011;21899;42.662;23.316;2023-04-16T02:37:09;12.00;;;5.25;;
35777;SDS011;21899;42.662;23.316;2023-04-16T02:39:34;11.27;;;4.70;;
35777;SDS011;21899;42.662;23.316;2023-04-16T02:42:00;9.45;;;4.63;;
35777;SDS011;21899;42.662;23.316;2023-04-16T02:44:26;8.27;;;4.32;;
35777;SDS011;21899;42.662;23.316;2023-04-16T02:46:52;9.63;;;4.50;;
35777;SDS011;21899;42.662;23.316;2023-04-16T02:49:17;9.95;;;4.70;;
35777;SDS011;21899;42.662;23.316;2023-04-16T02:51:42;7.50;;;3.67;;
35777;SDS011;21899;42.662;23.316;2023-04-16T02:54:08;6.45;;;3.13;;
35777;SDS011;21899;42.662;23.316;2023-04-16T02:56:33;9.77;;;3.45;;
35777;SDS011;21899;42.662;23.316;2023-04-16T02:58:59;9.68;;;3.40;;
35777;SDS011;21899;42.662;23.316;2023-04-16T03:01:24;7.40;;;2.97;;
35777;SDS011;21899;42.662;23.316;2023-04-16T03:03:49;5.88;;;2.65;;
35777;SDS011;21899;42.662;23.316;2023-04-16T03:06:15;8.38;;;3.17;;
35777;SDS011;21899;42.662;23.316;2023-04-16T03:08:40;8.40;;;3.30;;
35777;SDS011;21899;42.662;23.316;2023-04-16T03:11:06;6.05;;;3.15;;
35777;SDS011;21899;42.662;23.316;2023-04-16T03:13:31;7.28;;;3.20;;
35777;SDS011;21899;42.662;23.316;2023-04-16T03:15:57;6.50;;;2.90;;
35777;SDS011;21899;42.662;23.316;2023-04-16T03:18:22;7.80;;;3.42;;
35777;SDS011;21899;42.662;23.316;2023-04-16T03:20:51;8.88;;;2.80;;
35777;SDS011;21899;42.662;23.316;2023-04-16T03:23:17;5.53;;;2.20;;
35777;SDS011;21899;42.662;23.316;2023-04-16T03:25:42;6.63;;;3.40;;
35777;SDS011;21899;42.662;23.316;2023-04-16T03:28:10;6.63;;;2.75;;
35777;SDS011;21899;42.662;23.316;2023-04-16T03:30:36;12.50;;;4.03;;
35777;SDS011;21899;42.662;23.316;2023-04-16T03:33:01;6.18;;;3.10;;
35777;SDS011;21899;42.662;23.316;2023-04-16T03:35:27;7.93;;;2.75;;
35777;SDS011;21899;42.662;23.316;2023-04-16T03:37:52;4.97;;;2.60;;
35777;SDS011;21899;42.662;23.316;2023-04-16T03:40:18;6.20;;;2.85;;
35777;SDS011;21899;42.662;23.316;2023-04-16T03:42:43;7.50;;;3.10;;
35777;SDS011;21899;42.662;23.316;2023-04-16T03:45:08;6.53;;;2.75;;
35777;SDS011;21899;42.662;23.316;2023-04-16T03:47:34;13.40;;;2.90;;
35777;SDS011;21899;42.662;23.316;2023-04-16T03:50:00;5.05;;;2.53;;
35777;SDS011;21899;42.662;23.316;2023-04-16T03:52:25;5.95;;;2.92;;
35777;SDS011;21899;42.662;23.316;2023-04-16T03:54:52;5.28;;;2.40;;
35777;SDS011;21899;42.662;23.316;2023-04-16T03:57:17;6.07;;;3.08;;
35777;SDS011;21899;42.662;23.316;2023-04-16T03:59:43;7.32;;;3.00;;
35777;SDS011;21899;42.662;23.316;2023-04-16T04:02:08;6.60;;;2.85;;
35777;SDS011;21899;42.662;23.316;2023-04-16T04:04:33;7.70;;;2.97;;
35777;SDS011;21899;42.662;23.316;2023-04-16T04:06:59;6.50;;;2.70;;
35777;SDS011;21899;42.662;23.316;2023-04-16T04:09:24;6.50;;;2.90;;
35777;SDS011;21899;42.662;23.316;2023-04-16T04:11:50;7.15;;;3.15;;
35777;SDS011;21899;42.662;23.316;2023-04-16T04:14:15;7.00;;;3.22;;
35777;SDS011;21899;42.662;23.316;2023-04-16T04:16:40;5.85;;;3.20;;
35777;SDS011;21899;42.662;23.316;2023-04-16T04:19:06;8.98;;;3.45;;
35777;SDS011;21899;42.662;23.316;2023-04-16T04:21:31;10.18;;;3.45;;
35777;SDS011;21899;42.662;23.316;2023-04-16T04:23:57;9.57;;;3.53;;
35777;SDS011;21899;42.662;23.316;2023-04-16T04:26:22;10.15;;;3.83;;
35777;SDS011;21899;42.662;23.316;2023-04-16T04:28:48;8.05;;;3.80;;
35777;SDS011;21899;42.662;23.316;2023-04-16T04:31:13;10.00;;;4.13;;
35777;SDS011;21899;42.662;23.316;2023-04-16T04:33:39;10.18;;;3.88;;
35777;SDS011;21899;42.662;23.316;2023-04-16T04:36:04;11.85;;;3.90;;
35777;SDS011;21899;42.662;23.316;2023-04-16T04:38:30;8.93;;;4.15;;
35777;SDS011;21899;42.662;23.316;2023-04-16T04:40:56;10.45;;;4.50;;
35777;SDS011;21899;42.662;23.316;2023-04-16T04:43:21;9.57;;;4.60;;
35777;SDS011;21899;42.662;23.316;2023-04-16T04:45:47;8.75;;;4.47;;
35777;SDS011;21899;42.662;23.316;2023-04-16T04:48:13;9.50;;;4.43;;
35777;SDS011;21899;42.662;23.316;2023-04-16T04:50:39;12.07;;;5.03;;
35777;SDS011;21899;42.662;23.316;2023-04-16T04:53:05;13.45;;;5.10;;
35777;SDS011;21899;42.662;23.316;2023-04-16T04:55:35;13.75;;;5.75;;
35777;SDS011;21899;42.662;23.316;2023-04-16T04:58:03;13.18;;;5.43;;
35777;SDS011;21899;42.662;23.316;2023-04-16T05:00:30;14.60;;;5.72;;
35777;SDS011;21899;42.662;23.316;2023-04-16T05:02:56;17.10;;;5.53;;
35777;SDS011;21899;42.662;23.316;2023-04-16T05:05:21;14.27;;;5.68;;
35777;SDS011;21899;42.662;23.316;2023-04-16T05:07:47;12.73;;;5.78;;
35777;SDS011;21899;42.662;23.316;2023-04-16T05:10:12;11.68;;;5.32;;
35777;SDS011;21899;42.662;23.316;2023-04-16T05:12:38;12.32;;;5.60;;
35777;SDS011;21899;42.662;23.316;2023-04-16T05:15:04;11.40;;;5.40;;
35777;SDS011;21899;42.662;23.316;2023-04-16T05:17:30;13.27;;;5.75;;
35777;SDS011;21899;42.662;23.316;2023-04-16T05:19:55;11.23;;;5.70;;
35777;SDS011;21899;42.662;23.316;2023-04-16T05:22:20;13.50;;;5.22;;
35777;SDS011;21899;42.662;23.316;2023-04-16T05:24:46;10.45;;;5.20;;
35777;SDS011;21899;42.662;23.316;2023-04-16T05:27:11;11.60;;;5.10;;
35777;SDS011;21899;42.662;23.316;2023-04-16T05:29:37;10.93;;;5.07;;
35777;SDS011;21899;42.662;23.316;2023-04-16T05:32:02;10.82;;;5.40;;
35777;SDS011;21899;42.662;23.316;2023-04-16T05:34:27;10.60;;;5.25;;
35777;SDS011;21899;42.662;23.316;2023-04-16T05:36:53;11.90;;;5.43;;
35777;SDS011;21899;42.662;23.316;2023-04-16T05:39:18;12.25;;;5.50;;
35777;SDS011;21899;42.662;23.316;2023-04-16T05:41:44;12.70;;;5.38;;
35777;SDS011;21899;42.662;23.316;2023-04-16T05:44:09;10.13;;;5.50;;
35777;SDS011;21899;42.662;23.316;2023-04-16T05:46:35;15.40;;;5.50;;
35777;SDS011;21899;42.662;23.316;2023-04-16T05:49:00;9.40;;;5.15;;
35777;SDS011;21899;42.662;23.316;2023-04-16T05:51:25;10.70;;;5.47;;
35777;SDS011;21899;42.662;23.316;2023-04-16T05:53:51;11.38;;;4.82;;
35777;SDS011;21899;42.662;23.316;2023-04-16T05:56:17;7.88;;;4.10;;
35777;SDS011;21899;42.662;23.316;2023-04-16T05:58:42;8.68;;;4.63;;
35777;SDS011;21899;42.662;23.316;2023-04-16T06:01:09;8.98;;;4.55;;
35777;SDS011;21899;42.662;23.316;2023-04-16T06:03:35;9.18;;;4.47;;
35777;SDS011;21899;42.662;23.316;2023-04-16T06:06:00;7.85;;;4.15;;
35777;SDS011;21899;42.662;23.316;2023-04-16T06:08:25;8.27;;;4.40;;
35777;SDS011;21899;42.662;23.316;2023-04-16T06:10:51;8.65;;;4.45;;
35777;SDS011;21899;42.662;23.316;2023-04-16T06:13:17;6.40;;;4.00;;
35777;SDS011;21899;42.662;23.316;2023-04-16T06:15:42;9.60;;;4.00;;
35777;SDS011;21899;42.662;23.316;2023-04-16T06:18:08;10.02;;;4.93;;
35777;SDS011;21899;42.662;23.316;2023-04-16T06:20:33;10.50;;;4.30;;
35777;SDS011;21899;42.662;23.316;2023-04-16T06:22:59;10.93;;;5.00;;
35777;SDS011;21899;42.662;23.316;2023-04-16T06:25:25;11.52;;;4.90;;
35777;SDS011;21899;42.662;23.316;2023-04-16T06:27:50;15.32;;;5.15;;
35777;SDS011;21899;42.662;23.316;2023-04-16T06:30:15;8.98;;;4.85;;
35777;SDS011;21899;42.662;23.316;2023-04-16T06:32:41;11.50;;;5.65;;
35777;SDS011;21899;42.662;23.316;2023-04-16T06:35:07;8.70;;;4.57;;
35777;SDS011;21899;42.662;23.316;2023-04-16T06:37:33;10.27;;;4.80;;
35777;SDS011;21899;42.662;23.316;2023-04-16T06:39:58;11.13;;;5.40;;
35777;SDS011;21899;42.662;23.316;2023-04-16T06:42:24;10.35;;;5.32;;
35777;SDS011;21899;42.662;23.316;2023-04-16T06:44:49;11.05;;;4.43;;
35777;SDS011;21899;42.662;23.316;2023-04-16T06:47:14;8.65;;;4.57;;
35777;SDS011;21899;42.662;23.316;2023-04-16T06:49:40;9.95;;;5.30;;
35777;SDS011;21899;42.662;23.316;2023-04-16T06:52:05;11.70;;;5.90;;
35777;SDS011;21899;42.662;23.316;2023-04-16T06:54:31;12.30;;;4.70;;
35777;SDS011;21899;42.662;23.316;2023-04-16T06:56:56;9.98;;;5.18;;
35777;SDS011;21899;42.662;23.316;2023-04-16T06:59:22;10.77;;;5.28;;
35777;SDS011;21899;42.662;23.316;2023-04-16T07:01:47;8.85;;;4.30;;
35777;SDS011;21899;42.662;23.316;2023-04-16T07:04:13;8.32;;;4.20;;
35777;SDS011;21899;42.662;23.316;2023-04-16T07:06:38;10.75;;;4.22;;
35777;SDS011;21899;42.662;23.316;2023-04-16T07:09:04;8.55;;;4.30;;
35777;SDS011;21899;42.662;23.316;2023-04-16T07:11:29;9.25;;;4.22;;
35777;SDS011;21899;42.662;23.316;2023-04-16T07:13:55;11.98;;;4.28;;
35777;SDS011;21899;42.662;23.316;2023-04-16T07:16:21;8.18;;;4.30;;
35777;SDS011;21899;42.662;23.316;2023-04-16T07:18:47;10.38;;;4.05;;
35777;SDS011;21899;42.662;23.316;2023-04-16T07:21:12;11.85;;;4.32;;
35777;SDS011;21899;42.662;23.316;2023-04-16T07:23:38;8.50;;;4.20;;
35777;SDS011;21899;42.662;23.316;2023-04-16T07:26:03;10.57;;;4.60;;
35777;SDS011;21899;42.662;23.316;2023-04-16T07:28:28;8.20;;;4.40;;
35777;SDS011;21899;42.662;23.316;2023-04-16T07:30:54;12.73;;;5.30;;
35777;SDS011;21899;42.662;23.316;2023-04-16T07:33:19;9.73;;;4.20;;
35777;SDS011;21899;42.662;23.316;2023-04-16T07:35:45;7.95;;;4.10;;
35777;SDS011;21899;42.662;23.316;2023-04-16T07:38:10;8.15;;;4.82;;
35777;SDS011;21899;42.662;23.316;2023-04-16T07:40:36;9.45;;;4.78;;
35777;SDS011;21899;42.662;23.316;2023-04-16T07:43:01;10.65;;;4.85;;
35777;SDS011;21899;42.662;23.316;2023-04-16T07:45:27;13.15;;;4.28;;
35777;SDS011;21899;42.662;23.316;2023-04-16T07:47:52;10.07;;;4.65;;
35777;SDS011;21899;42.662;23.316;2023-04-16T07:50:17;7.75;;;4.68;;
35777;SDS011;21899;42.662;23.316;2023-04-16T07:52:43;11.93;;;4.63;;
35777;SDS011;21899;42.662;23.316;2023-04-16T07:55:10;8.40;;;4.85;;
35777;SDS011;21899;42.662;23.316;2023-04-16T07:57:36;10.25;;;4.65;;
35777;SDS011;21899;42.662;23.316;2023-04-16T08:00:01;9.40;;;4.25;;
35777;SDS011;21899;42.662;23.316;2023-04-16T08:02:29;8.90;;;4.53;;
35777;SDS011;21899;42.662;23.316;2023-04-16T08:04:55;9.95;;;4.80;;
35777;SDS011;21899;42.662;23.316;2023-04-16T08:07:20;8.13;;;4.40;;
35777;SDS011;21899;42.662;23.316;2023-04-16T08:09:52;10.38;;;4.70;;
35777;SDS011;21899;42.662;23.316;2023-04-16T08:12:18;6.53;;;3.75;;
35777;SDS011;21899;42.662;23.316;2023-04-16T08:14:45;7.85;;;4.13;;
35777;SDS011;21899;42.662;23.316;2023-04-16T08:17:11;7.05;;;3.67;;
35777;SDS011;21899;42.662;23.316;2023-04-16T08:19:37;8.68;;;3.67;;
35777;SDS011;21899;42.662;23.316;2023-04-16T08:22:03;7.70;;;3.20;;
35777;SDS011;21899;42.662;23.316;2023-04-16T08:24:29;11.75;;;3.85;;
35777;SDS011;21899;42.662;23.316;2023-04-16T08:26:55;5.70;;;3.22;;
35777;SDS011;21899;42.662;23.316;2023-04-16T08:29:21;6.43;;;3.40;;
35777;SDS011;21899;42.662;23.316;2023-04-16T08:31:49;6.20;;;3.13;;
35777;SDS011;21899;42.662;23.316;2023-04-16T08:34:14;7.43;;;3.35;;
35777;SDS011;21899;42.662;23.316;2023-04-16T08:36:40;7.20;;;3.53;;
35777;SDS011;21899;42.662;23.316;2023-04-16T08:39:05;5.90;;;3.30;;
35777;SDS011;21899;42.662;23.316;2023-04-16T08:41:31;8.30;;;3.35;;
35777;SDS011;21899;42.662;23.316;2023-04-16T08:43:59;8.60;;;3.15;;
35777;SDS011;21899;42.662;23.316;2023-04-16T08:46:28;5.25;;;2.65;;
35777;SDS011;21899;42.662;23.316;2023-04-16T08:48:55;5.93;;;3.03;;
35777;SDS011;21899;42.662;23.316;2023-04-16T08:51:23;4.90;;;2.53;;
35777;SDS011;21899;42.662;23.316;2023-04-16T08:53:52;8.93;;;3.20;;
35777;SDS011;21899;42.662;23.316;2023-04-16T08:56:21;8.20;;;3.17;;
35777;SDS011;21899;42.662;23.316;2023-04-16T08:58:49;5.97;;;3.42;;
35777;SDS011;21899;42.662;23.316;2023-04-16T09:01:16;5.90;;;3.40;;
35777;SDS011;21899;42.662;23.316;2023-04-16T09:03:46;6.38;;;3.20;;
35777;SDS011;21899;42.662;23.316;2023-04-16T09:06:12;6.28;;;2.85;;
35777;SDS011;21899;42.662;23.316;2023-04-16T09:08:39;6.78;;;3.20;;
35777;SDS011;21899;42.662;23.316;2023-04-16T09:11:05;8.57;;;3.20;;
35777;SDS011;21899;42.662;23.316;2023-04-16T09:13:30;9.48;;;3.30;;
35777;SDS011;21899;42.662;23.316;2023-04-16T09:15:56;8.23;;;3.10;;
35777;SDS011;21899;42.662;23.316;2023-04-16T09:18:22;6.57;;;3.22;;
35777;SDS011;21899;42.662;23.316;2023-04-16T09:20:48;8.35;;;3.08;;
35777;SDS011;21899;42.662;23.316;2023-04-16T09:23:15;6.82;;;3.33;;
35777;SDS011;21899;42.662;23.316;2023-04-16T09:25:40;5.85;;;2.47;;
35777;SDS011;21899;42.662;23.316;2023-04-16T09:28:06;6.95;;;3.45;;
35777;SDS011;21899;42.662;23.316;2023-04-16T09:30:31;10.20;;;3.33;;
35777;SDS011;21899;42.662;23.316;2023-04-16T09:33:16;6.38;;;2.72;;
35777;SDS011;21899;42.662;23.316;2023-04-16T09:35:50;6.50;;;2.90;;
35777;SDS011;21899;42.662;23.316;2023-04-16T09:38:17;7.05;;;3.70;;
35777;SDS011;21899;42.662;23.316;2023-04-16T09:40:43;8.38;;;3.17;;
35777;SDS011;21899;42.662;23.316;2023-04-16T09:45:49;8.85;;;2.80;;
35777;SDS011;21899;42.662;23.316;2023-04-16T09:48:15;9.10;;;3.13;;
35777;SDS011;21899;42.662;23.316;2023-04-16T09:50:51;5.07;;;3.05;;
35777;SDS011;21899;42.662;23.316;2023-04-16T09:53:27;7.20;;;2.90;;
35777;SDS011;21899;42.662;23.316;2023-04-16T09:55:57;4.50;;;2.60;;
35777;SDS011;21899;42.662;23.316;2023-04-16T09:58:23;6.65;;;2.70;;
35777;SDS011;21899;42.662;23.316;2023-04-16T10:01:02;5.10;;;2.58;;
35777;SDS011;21899;42.662;23.316;2023-04-16T10:03:37;9.07;;;3.10;;
35777;SDS011;21899;42.662;23.316;2023-04-16T10:06:17;6.10;;;2.63;;
35777;SDS011;21899;42.662;23.316;2023-04-16T10:08:47;7.70;;;2.88;;
35777;SDS011;21899;42.662;23.316;2023-04-16T10:11:12;8.02;;;3.10;;
35777;SDS011;21899;42.662;23.316;2023-04-16T10:13:38;6.72;;;3.00;;
35777;SDS011;21899;42.662;23.316;2023-04-16T10:16:05;5.57;;;2.75;;
35777;SDS011;21899;42.662;23.316;2023-04-16T10:18:32;7.88;;;2.90;;
35777;SDS011;21899;42.662;23.316;2023-04-16T10:20:59;5.97;;;2.65;;
35777;SDS011;21899;42.662;23.316;2023-04-16T10:23:26;10.13;;;3.05;;
35777;SDS011;21899;42.662;23.316;2023-04-16T10:25:52;10.57;;;3.30;;
35777;SDS011;21899;42.662;23.316;2023-04-16T10:28:18;6.05;;;2.50;;
35777;SDS011;21899;42.662;23.316;2023-04-16T10:30:46;7.50;;;3.10;;
35777;SDS011;21899;42.662;23.316;2023-04-16T10:33:24;9.00;;;3.03;;
35777;SDS011;21899;42.662;23.316;2023-04-16T10:35:52;7.97;;;3.33;;
35777;SDS011;21899;42.662;23.316;2023-04-16T10:38:33;5.43;;;2.63;;
35777;SDS011;21899;42.662;23.316;2023-04-16T10:41:01;6.47;;;2.65;;
35777;SDS011;21899;42.662;23.316;2023-04-16T10:43:28;6.00;;;2.70;;
35777;SDS011;21899;42.662;23.316;2023-04-16T10:45:54;6.70;;;2.78;;
35777;SDS011;21899;42.662;23.316;2023-04-16T10:48:20;6.60;;;2.60;;
35777;SDS011;21899;42.662;23.316;2023-04-16T10:50:54;7.00;;;2.78;;
35777;SDS011;21899;42.662;23.316;2023-04-16T10:53:25;8.85;;;3.17;;
35777;SDS011;21899;42.662;23.316;2023-04-16T10:58:30;7.38;;;2.92;;
35777;SDS011;21899;42.662;23.316;2023-04-16T11:00:59;5.72;;;2.45;;
35777;SDS011;21899;42.662;23.316;2023-04-16T11:03:29;5.63;;;2.72;;
35777;SDS011;21899;42.662;23.316;2023-04-16T11:06:08;4.45;;;2.35;;
35777;SDS011;21899;42.662;23.316;2023-04-16T11:08:44;9.52;;;3.25;;
35777;SDS011;21899;42.662;23.316;2023-04-16T11:11:11;6.63;;;3.08;;
35777;SDS011;21899;42.662;23.316;2023-04-16T11:13:37;7.68;;;2.67;;
35777;SDS011;21899;42.662;23.316;2023-04-16T11:16:06;5.55;;;3.08;;
35777;SDS011;21899;42.662;23.316;2023-04-16T11:18:32;5.80;;;2.88;;
35777;SDS011;21899;42.662;23.316;2023-04-16T11:20:58;5.88;;;2.72;;
35777;SDS011;21899;42.662;23.316;2023-04-16T11:23:24;8.15;;;3.05;;
35777;SDS011;21899;42.662;23.316;2023-04-16T11:25:49;5.03;;;2.42;;
35777;SDS011;21899;42.662;23.316;2023-04-16T11:28:20;8.23;;;2.97;;
35777;SDS011;21899;42.662;23.316;2023-04-16T11:30:55;8.13;;;3.15;;
35777;SDS011;21899;42.662;23.316;2023-04-16T11:33:21;6.63;;;2.90;;
35777;SDS011;21899;42.662;23.316;2023-04-16T11:35:55;8.75;;;2.80;;
35777;SDS011;21899;42.662;23.316;2023-04-16T11:38:31;8.73;;;3.33;;
35777;SDS011;21899;42.662;23.316;2023-04-16T11:40:57;5.38;;;2.75;;
35777;SDS011;21899;42.662;23.316;2023-04-16T11:43:22;4.75;;;2.45;;
35777;SDS011;21899;42.662;23.316;2023-04-16T11:48:22;10.20;;;4.13;;
35777;SDS011;21899;42.662;23.316;2023-04-16T11:50:54;6.63;;;2.78;;
35777;SDS011;21899;42.662;23.316;2023-04-16T11:53:21;6.40;;;3.13;;
35777;SDS011;21899;42.662;23.316;2023-04-16T11:55:46;7.25;;;3.45;;
35777;SDS011;21899;42.662;23.316;2023-04-16T11:58:11;7.85;;;3.85;;
35777;SDS011;21899;42.662;23.316;2023-04-16T12:00:40;9.40;;;4.70;;
35777;SDS011;21899;42.662;23.316;2023-04-16T12:03:06;8.90;;;3.20;;
35777;SDS011;21899;42.662;23.316;2023-04-16T12:05:36;5.40;;;2.67;;
35777;SDS011;21899;42.662;23.316;2023-04-16T12:08:03;7.25;;;2.70;;
35777;SDS011;21899;42.662;23.316;2023-04-16T12:10:31;5.70;;;2.72;;
35777;SDS011;21899;42.662;23.316;2023-04-16T12:13:13;7.10;;;3.20;;
35777;SDS011;21899;42.662;23.316;2023-04-16T12:15:46;7.28;;;3.05;;
35777;SDS011;21899;42.662;23.316;2023-04-16T12:18:16;7.35;;;2.85;;
35777;SDS011;21899;42.662;23.316;2023-04-16T12:20:43;11.27;;;4.20;;
35777;SDS011;21899;42.662;23.316;2023-04-16T12:23:25;6.60;;;3.05;;
35777;SDS011;21899;42.662;23.316;2023-04-16T12:25:51;7.45;;;2.70;;
35777;SDS011;21899;42.662;23.316;2023-04-16T12:30:55;5.15;;;2.45;;
35777;SDS011;21899;42.662;23.316;2023-04-16T12:33:21;5.40;;;2.67;;
35777;SDS011;21899;42.662;23.316;2023-04-16T12:35:47;6.28;;;2.90;;
35777;SDS011;21899;42.662;23.316;2023-04-16T12:38:12;5.78;;;3.10;;
35777;SDS011;21899;42.662;23.316;2023-04-16T12:40:39;5.53;;;2.90;;
35777;SDS011;21899;42.662;23.316;2023-04-16T12:43:05;4.93;;;2.30;;
35777;SDS011;21899;42.662;23.316;2023-04-16T12:45:31;4.38;;;2.28;;
35777;SDS011;21899;42.662;23.316;2023-04-16T12:47:57;4.95;;;2.55;;
35777;SDS011;21899;42.662;23.316;2023-04-16T12:50:22;6.90;;;2.60;;
35777;SDS011;21899;42.662;23.316;2023-04-16T12:52:48;5.07;;;2.70;;
35777;SDS011;21899;42.662;23.316;2023-04-16T12:55:13;7.95;;;3.30;;
35777;SDS011;21899;42.662;23.316;2023-04-16T12:57:39;7.63;;;2.92;;
35777;SDS011;21899;42.662;23.316;2023-04-16T13:00:05;7.45;;;3.10;;
35777;SDS011;21899;42.662;23.316;2023-04-16T13:02:32;6.45;;;2.85;;
35777;SDS011;21899;42.662;23.316;2023-04-16T13:04:57;9.27;;;2.92;;
35777;SDS011;21899;42.662;23.316;2023-04-16T13:07:23;6.50;;;3.03;;
35777;SDS011;21899;42.662;23.316;2023-04-16T13:09:50;6.53;;;2.63;;
35777;SDS011;21899;42.662;23.316;2023-04-16T13:12:16;3.97;;;1.92;;
35777;SDS011;21899;42.662;23.316;2023-04-16T13:14:41;7.07;;;2.28;;
35777;SDS011;21899;42.662;23.316;2023-04-16T13:17:07;5.93;;;2.30;;
35777;SDS011;21899;42.662;23.316;2023-04-16T13:19:32;6.00;;;2.58;;
35777;SDS011;21899;42.662;23.316;2023-04-16T13:21:57;7.93;;;2.70;;
35777;SDS011;21899;42.662;23.316;2023-04-16T13:24:23;6.93;;;1.98;;
35777;SDS011;21899;42.662;23.316;2023-04-16T13:26:49;7.75;;;2.05;;
35777;SDS011;21899;42.662;23.316;2023-04-16T13:29:16;9.18;;;4.03;;
35777;SDS011;21899;42.662;23.316;2023-04-16T13:31:42;5.75;;;2.80;;
35777;SDS011;21899;42.662;23.316;2023-04-16T13:34:07;3.63;;;2.40;;
35777;SDS011;21899;42.662;23.316;2023-04-16T13:36:33;5.88;;;2.00;;
35777;SDS011;21899;42.662;23.316;2023-04-16T13:38:59;4.05;;;2.17;;
35777;SDS011;21899;42.662;23.316;2023-04-16T13:41:24;5.18;;;2.38;;
35777;SDS011;21899;42.662;23.316;2023-04-16T13:43:50;5.95;;;2.30;;
35777;SDS011;21899;42.662;23.316;2023-04-16T13:46:15;7.10;;;2.30;;
35777;SDS011;21899;42.662;23.316;2023-04-16T13:48:41;5.95;;;2.45;;
35777;SDS011;21899;42.662;23.316;2023-04-16T13:51:06;6.93;;;2.28;;
35777;SDS011;21899;42.662;23.316;2023-04-16T13:53:32;7.15;;;2.40;;
35777;SDS011;21899;42.662;23.316;2023-04-16T13:55:58;2.72;;;1.73;;
35777;SDS011;21899;42.662;23.316;2023-04-16T13:58:23;4.47;;;2.42;;
35777;SDS011;21899;42.662;23.316;2023-04-16T14:00:49;5.57;;;1.83;;
35777;SDS011;21899;42.662;23.316;2023-04-16T14:03:14;5.30;;;2.03;;
35777;SDS011;21899;42.662;23.316;2023-04-16T14:05:39;7.65;;;2.08;;
35777;SDS011;21899;42.662;23.316;2023-04-16T14:08:05;5.10;;;2.17;;
35777;SDS011;21899;42.662;23.316;2023-04-16T14:10:31;5.47;;;1.70;;
35777;SDS011;21899;42.662;23.316;2023-04-16T14:12:57;3.88;;;2.00;;
35777;SDS011;21899;42.662;23.316;2023-04-16T14:15:22;7.57;;;2.80;;
35777;SDS011;21899;42.662;23.316;2023-04-16T14:17:50;4.60;;;2.00;;
35777;SDS011;21899;42.662;23.316;2023-04-16T14:20:16;6.78;;;2.10;;
35777;SDS011;21899;42.662;23.316;2023-04-16T14:22:41;4.93;;;2.13;;
35777;SDS011;21899;42.662;23.316;2023-04-16T14:25:08;4.47;;;2.05;;
35777;SDS011;21899;42.662;23.316;2023-04-16T14:27:33;6.82;;;2.55;;
35777;SDS011;21899;42.662;23.316;2023-04-16T14:29:59;3.95;;;2.00;;
35777;SDS011;21899;42.662;23.316;2023-04-16T14:32:25;7.75;;;2.28;;
35777;SDS011;21899;42.662;23.316;2023-04-16T14:34:51;5.53;;;2.38;;
35777;SDS011;21899;42.662;23.316;2023-04-16T14:37:16;6.18;;;2.15;;